createdAt,value
2023-01-23T00:00:10.784Z,22.23
2023-01-23T00:01:10.733Z,22.23
2023-01-23T00:02:10.760Z,22.25
2023-01-23T00:03:10.694Z,22.26
2023-01-23T00:04:10.730Z,22.25
2023-01-23T00:54:34.351Z,23.14
2023-01-23T00:55:35.146Z,22.56
2023-01-23T00:56:35.092Z,22.47
2023-01-23T00:57:35.044Z,22.41
2023-01-23T00:58:34.952Z,22.39
2023-01-23T00:59:34.897Z,22.35
2023-01-23T01:00:34.839Z,22.34
2023-01-23T01:01:34.853Z,22.32
2023-01-23T01:02:34.773Z,22.31
2023-01-23T01:03:34.676Z,22.30
2023-01-23T01:04:34.615Z,22.28
2023-01-23T01:05:34.571Z,22.29
2023-01-23T01:06:34.529Z,22.26
2023-01-23T01:07:34.497Z,22.28
2023-01-23T01:08:34.422Z,22.26
2023-01-23T01:09:34.354Z,22.27
2023-01-23T01:10:34.419Z,22.26
2023-01-23T01:11:34.254Z,22.26
2023-01-23T01:12:34.304Z,22.25
2023-01-23T01:13:34.148Z,22.24
2023-01-23T01:14:34.103Z,22.25
2023-01-23T01:15:34.044Z,22.26
2023-01-23T01:16:34.063Z,22.24
2023-01-23T01:17:33.939Z,22.25
2023-01-23T01:18:33.898Z,22.25
2023-01-23T01:19:33.844Z,22.23
2023-01-23T01:20:33.795Z,22.24
2023-01-23T01:21:33.771Z,22.24
2023-01-23T01:22:33.683Z,22.23
2023-01-23T01:23:33.631Z,22.25
2023-01-23T01:24:33.570Z,22.23
2023-01-23T01:25:33.517Z,22.22
2023-01-23T01:26:33.596Z,22.23
2023-01-23T01:27:33.400Z,22.23
2023-01-23T01:28:33.407Z,22.22
2023-01-23T01:29:33.289Z,22.22
2023-01-23T01:30:33.320Z,22.22
2023-01-23T01:31:33.275Z,22.22
2023-01-23T01:32:33.116Z,22.22
2023-01-23T01:33:33.095Z,22.20
2023-01-23T01:34:32.998Z,22.22
2023-01-23T01:35:32.942Z,22.21
2023-01-23T01:36:32.887Z,22.20
2023-01-23T01:37:32.825Z,22.19
2023-01-23T01:38:32.762Z,22.18
2023-01-23T01:39:32.703Z,22.17
2023-01-23T01:40:32.647Z,22.20
2023-01-23T01:41:32.595Z,22.20
2023-01-23T01:42:32.649Z,22.20
2023-01-23T01:43:32.468Z,22.19
2023-01-23T01:44:32.421Z,22.20
2023-01-23T01:45:32.354Z,22.18
2023-01-23T01:46:32.370Z,22.17
2023-01-23T01:47:32.243Z,22.18
2023-01-23T01:48:32.184Z,22.19
2023-01-23T01:49:32.143Z,22.18
2023-01-23T01:50:32.061Z,22.17
2023-01-23T01:51:32.009Z,22.18
2023-01-23T01:52:31.945Z,22.19
2023-01-23T01:53:31.882Z,22.17
2023-01-23T01:54:31.835Z,22.16
2023-01-23T01:55:31.770Z,22.17
2023-01-23T01:56:31.718Z,22.17
2023-01-23T01:57:31.696Z,22.19
2023-01-23T01:58:31.724Z,22.17
2023-01-23T01:59:31.548Z,22.15
2023-01-23T02:00:31.534Z,22.16
2023-01-23T02:01:31.422Z,22.17
2023-01-23T02:02:31.394Z,22.15
2023-01-23T02:03:31.307Z,22.14
2023-01-23T02:04:31.234Z,22.15
2023-01-23T02:05:31.180Z,22.15
2023-01-23T02:06:31.141Z,22.14
2023-01-23T02:07:31.047Z,22.13
2023-01-23T02:08:30.991Z,22.14
2023-01-23T02:09:30.927Z,22.15
2023-01-23T02:10:30.869Z,22.16
2023-01-23T02:11:30.842Z,22.13
2023-01-23T02:12:31.488Z,22.13
2023-01-23T02:13:30.682Z,22.13
2023-01-23T02:14:30.745Z,22.14
2023-01-23T02:15:30.559Z,22.14
2023-01-23T02:16:30.566Z,22.15
2023-01-23T02:17:30.444Z,22.13
2023-01-23T02:18:30.376Z,22.13
2023-01-23T02:19:30.310Z,22.12
2023-01-23T02:20:30.266Z,22.11
2023-01-23T02:21:30.241Z,22.12
2023-01-23T02:22:30.121Z,22.12
2023-01-23T02:23:30.056Z,22.12
2023-01-23T02:24:29.991Z,22.13
2023-01-23T02:25:29.971Z,22.12
2023-01-23T02:26:29.869Z,22.11
2023-01-23T02:27:29.801Z,22.10
2023-01-23T02:28:29.735Z,22.12
2023-01-23T02:29:29.677Z,22.12
2023-01-23T02:30:29.734Z,22.10
2023-01-23T02:31:29.618Z,22.11
2023-01-23T02:32:29.528Z,22.11
2023-01-23T02:33:29.424Z,22.11
2023-01-23T02:34:29.362Z,22.10
2023-01-23T02:35:29.310Z,22.11
2023-01-23T02:36:29.279Z,22.09
2023-01-23T02:37:29.217Z,22.09
2023-01-23T02:38:29.132Z,22.08
2023-01-23T02:39:29.073Z,22.10
2023-01-23T02:40:29.024Z,22.09
2023-01-23T02:41:28.963Z,22.08
2023-01-23T02:42:28.939Z,22.06
2023-01-23T02:43:28.852Z,22.07
2023-01-23T02:44:28.842Z,22.08
2023-01-23T02:45:28.770Z,22.07
2023-01-23T02:46:28.802Z,22.06
2023-01-23T02:47:28.626Z,22.08
2023-01-23T02:48:28.577Z,22.07
2023-01-23T02:49:28.536Z,22.05
2023-01-23T02:50:28.456Z,22.04
2023-01-23T02:51:28.392Z,22.06
2023-01-23T02:52:28.367Z,22.04
2023-01-23T02:53:28.279Z,22.05
2023-01-23T02:54:28.218Z,22.05
2023-01-23T02:55:28.163Z,22.04
2023-01-23T02:56:28.114Z,22.06
2023-01-23T02:57:28.084Z,22.05
2023-01-23T02:58:27.994Z,22.04
2023-01-23T02:59:27.925Z,22.05
2023-01-23T03:00:27.868Z,22.04
2023-01-23T03:01:27.831Z,22.04
2023-01-23T03:02:28.034Z,22.04
2023-01-23T03:03:27.693Z,22.04
2023-01-23T03:04:27.653Z,22.02
2023-01-23T03:05:27.577Z,22.01
2023-01-23T03:06:27.548Z,22.03
2023-01-23T03:07:27.551Z,22.00
2023-01-23T03:08:27.392Z,22.02
2023-01-23T03:09:27.340Z,22.00
2023-01-23T03:10:27.289Z,22.01
2023-01-23T03:11:27.223Z,22.01
2023-01-23T03:12:27.235Z,22.02
2023-01-23T03:13:27.102Z,22.00
2023-01-23T03:14:27.039Z,22.00
2023-01-23T03:15:26.981Z,22.00
2023-01-23T03:16:26.928Z,22.00
2023-01-23T03:17:26.881Z,21.98
2023-01-23T03:18:26.908Z,21.98
2023-01-23T03:19:26.729Z,21.98
2023-01-23T03:20:26.680Z,21.98
2023-01-23T03:21:26.612Z,21.97
2023-01-23T03:22:26.552Z,21.97
2023-01-23T03:23:26.522Z,21.95
2023-01-23T03:24:26.425Z,21.96
2023-01-23T03:25:26.366Z,21.96
2023-01-23T03:26:26.312Z,21.94
2023-01-23T03:27:26.273Z,21.95
2023-01-23T03:28:26.254Z,21.96
2023-01-23T03:29:26.119Z,21.93
2023-01-23T03:30:26.057Z,21.94
2023-01-23T03:31:26.067Z,21.94
2023-01-23T03:32:25.943Z,21.93
2023-01-23T03:33:25.939Z,21.93
2023-01-23T03:34:25.933Z,21.94
2023-01-23T03:35:25.790Z,21.91
2023-01-23T03:36:25.724Z,21.92
2023-01-23T03:37:25.639Z,21.93
2023-01-23T03:38:25.573Z,21.94
2023-01-23T03:39:25.533Z,21.91
2023-01-23T03:40:25.473Z,21.91
2023-01-23T03:41:25.400Z,21.91
2023-01-23T03:42:25.349Z,21.90
2023-01-23T03:43:25.311Z,21.87
2023-01-23T03:44:25.205Z,21.88
2023-01-23T03:45:25.167Z,21.90
2023-01-23T03:46:25.078Z,21.87
2023-01-23T03:47:25.053Z,21.87
2023-01-23T03:48:24.964Z,21.89
2023-01-23T03:49:24.902Z,21.88
2023-01-23T03:50:24.949Z,21.88
2023-01-23T03:51:24.883Z,21.87
2023-01-23T03:52:24.709Z,21.88
2023-01-23T03:53:24.645Z,21.88
2023-01-23T03:54:24.600Z,21.88
2023-01-23T03:55:24.528Z,21.87
2023-01-23T03:56:24.465Z,21.86
2023-01-23T03:57:24.405Z,21.85
2023-01-23T03:58:24.367Z,21.86
2023-01-23T03:59:24.286Z,21.86
2023-01-23T04:00:24.222Z,21.86
2023-01-23T04:01:24.232Z,21.84
2023-01-23T04:02:24.209Z,21.85
2023-01-23T04:03:24.108Z,21.85
2023-01-23T04:04:23.993Z,21.86
2023-01-23T04:05:23.947Z,21.83
2023-01-23T04:06:23.990Z,21.83
2023-01-23T04:07:23.842Z,21.85
2023-01-23T04:08:23.793Z,21.84
2023-01-23T04:09:23.710Z,21.83
2023-01-23T04:10:23.661Z,21.83
2023-01-23T04:11:23.598Z,21.83
2023-01-23T04:12:23.548Z,21.82
2023-01-23T04:13:23.482Z,21.83
2023-01-23T04:14:23.433Z,21.83
2023-01-23T04:15:23.373Z,21.82
2023-01-23T04:16:23.349Z,21.81
2023-01-23T04:17:23.306Z,21.80
2023-01-23T04:18:23.210Z,21.82
2023-01-23T04:19:23.160Z,21.83
2023-01-23T04:20:23.196Z,21.81
2023-01-23T04:21:23.047Z,21.81
2023-01-23T04:22:23.147Z,21.80
2023-01-23T04:23:22.929Z,21.79
2023-01-23T04:24:22.876Z,21.77
2023-01-23T04:25:22.821Z,21.79
2023-01-23T04:26:22.798Z,21.78
2023-01-23T04:27:22.713Z,21.78
2023-01-23T04:28:22.652Z,21.76
2023-01-23T04:29:22.601Z,21.76
2023-01-23T04:30:22.928Z,21.78
2023-01-23T04:31:22.751Z,21.76
2023-01-23T04:32:22.452Z,21.78
2023-01-23T04:33:22.393Z,21.76
2023-01-23T04:34:22.349Z,21.77
2023-01-23T04:35:22.283Z,21.76
2023-01-23T04:36:22.266Z,21.75
2023-01-23T04:37:22.184Z,21.73
2023-01-23T04:38:22.280Z,21.73
2023-01-23T04:39:22.084Z,21.74
2023-01-23T04:40:22.311Z,21.74
2023-01-23T04:41:21.966Z,21.76
2023-01-23T04:42:21.899Z,21.75
2023-01-23T04:43:21.888Z,21.74
2023-01-23T04:44:21.827Z,21.75
2023-01-23T04:45:21.731Z,21.75
2023-01-23T04:46:21.780Z,21.74
2023-01-23T04:47:21.641Z,21.74
2023-01-23T04:48:21.579Z,21.73
2023-01-23T04:49:21.558Z,21.72
2023-01-23T04:50:21.769Z,21.72
2023-01-23T04:51:21.497Z,21.74
2023-01-23T04:52:22.043Z,21.73
2023-01-23T04:53:21.307Z,21.72
2023-01-23T04:54:21.305Z,21.72
2023-01-23T04:55:21.192Z,21.74
2023-01-23T04:56:21.130Z,21.71
2023-01-23T04:57:21.072Z,21.71
2023-01-23T04:58:21.024Z,21.73
2023-01-23T04:59:20.992Z,21.72
2023-01-23T05:00:21.196Z,21.71
2023-01-23T05:01:20.874Z,21.69
2023-01-23T05:02:20.792Z,21.69
2023-01-23T05:03:20.744Z,21.68
2023-01-23T05:04:20.686Z,21.70
2023-01-23T05:05:20.609Z,21.70
2023-01-23T05:06:20.554Z,21.69
2023-01-23T05:07:20.497Z,21.68
2023-01-23T05:08:20.432Z,21.69
2023-01-23T05:09:20.403Z,21.68
2023-01-23T05:10:20.695Z,21.67
2023-01-23T05:11:20.245Z,21.69
2023-01-23T05:12:20.186Z,21.69
2023-01-23T05:13:20.120Z,21.70
2023-01-23T05:14:20.061Z,21.68
2023-01-23T05:15:20.000Z,21.69
2023-01-23T05:16:19.966Z,21.66
2023-01-23T05:17:19.890Z,21.66
2023-01-23T05:18:19.823Z,21.68
2023-01-23T05:19:19.754Z,21.67
2023-01-23T05:20:20.033Z,21.68
2023-01-23T05:21:19.658Z,21.68
2023-01-23T05:22:19.568Z,21.67
2023-01-23T05:23:19.503Z,21.67
2023-01-23T05:24:19.453Z,21.67
2023-01-23T05:25:19.415Z,21.67
2023-01-23T05:26:19.446Z,21.66
2023-01-23T05:27:19.270Z,21.66
2023-01-23T05:28:19.206Z,21.67
2023-01-23T05:29:19.139Z,21.67
2023-01-23T05:30:19.420Z,21.66
2023-01-23T05:31:19.154Z,21.67
2023-01-23T05:32:18.978Z,21.66
2023-01-23T05:33:18.909Z,21.68
2023-01-23T05:34:18.840Z,21.66
2023-01-23T05:35:18.777Z,21.67
2023-01-23T05:36:18.836Z,21.66
2023-01-23T05:37:18.664Z,21.64
2023-01-23T05:38:18.608Z,21.65
2023-01-23T05:39:18.547Z,21.62
2023-01-23T05:40:18.835Z,21.64
2023-01-23T05:41:18.419Z,21.62
2023-01-23T05:42:18.487Z,21.64
2023-01-23T05:43:18.303Z,21.62
2023-01-23T05:44:18.248Z,21.62
2023-01-23T05:45:18.212Z,21.63
2023-01-23T05:46:18.290Z,21.64
2023-01-23T05:47:18.069Z,21.61
2023-01-23T05:48:18.009Z,21.63
2023-01-23T05:49:17.962Z,21.63
2023-01-23T05:50:18.133Z,21.63
2023-01-23T05:51:17.947Z,21.63
2023-01-23T05:52:17.795Z,21.62
2023-01-23T05:53:17.736Z,21.61
2023-01-23T05:54:17.686Z,21.61
2023-01-23T05:55:17.656Z,21.60
2023-01-23T05:56:17.589Z,21.61
2023-01-23T05:57:17.497Z,21.59
2023-01-23T05:58:17.551Z,21.61
2023-01-23T05:59:17.378Z,21.59
2023-01-23T06:00:17.425Z,21.59
2023-01-23T06:01:17.307Z,21.60
2023-01-23T06:02:17.279Z,21.60
2023-01-23T06:03:17.177Z,21.59
2023-01-23T06:04:17.070Z,21.60
2023-01-23T06:05:17.020Z,21.60
2023-01-23T06:06:16.960Z,21.59
2023-01-23T06:07:17.089Z,21.58
2023-01-23T06:08:16.860Z,21.56
2023-01-23T06:09:16.779Z,21.58
2023-01-23T06:10:16.724Z,21.57
2023-01-23T06:11:16.660Z,21.57
2023-01-23T06:12:16.598Z,21.56
2023-01-23T06:13:16.560Z,21.55
2023-01-23T06:14:16.600Z,21.55
2023-01-23T06:15:16.607Z,21.56
2023-01-23T06:16:16.471Z,21.54
2023-01-23T06:17:16.307Z,21.55
2023-01-23T06:18:16.233Z,21.53
2023-01-23T06:19:16.582Z,21.59
2023-01-23T06:20:16.117Z,21.64
2023-01-23T06:21:16.577Z,21.61
2023-01-23T06:22:16.002Z,21.64
2023-01-23T06:23:15.960Z,21.68
2023-01-23T06:24:15.878Z,21.67
2023-01-23T06:25:15.817Z,21.67
2023-01-23T06:26:15.762Z,21.67
2023-01-23T06:27:15.702Z,21.69
2023-01-23T06:28:16.088Z,21.71
2023-01-23T06:29:15.580Z,21.70
2023-01-23T06:30:15.637Z,21.72
2023-01-23T06:31:15.831Z,21.74
2023-01-23T06:32:15.445Z,21.74
2023-01-23T06:33:15.353Z,21.77
2023-01-23T06:34:15.294Z,21.87
2023-01-23T06:35:15.227Z,21.84
2023-01-23T06:36:15.169Z,21.85
2023-01-23T06:37:15.108Z,21.81
2023-01-23T06:38:15.045Z,21.79
2023-01-23T06:39:14.983Z,21.80
2023-01-23T06:40:14.931Z,21.79
2023-01-23T06:41:15.094Z,21.80
2023-01-23T06:42:14.805Z,21.78
2023-01-23T06:43:14.744Z,21.81
2023-01-23T06:44:15.092Z,21.86
2023-01-23T06:45:16.174Z,21.85
2023-01-23T06:46:14.799Z,21.84
2023-01-23T06:47:14.577Z,21.92
2023-01-23T06:48:14.507Z,22.08
2023-01-23T06:49:14.500Z,22.15
2023-01-23T06:50:14.421Z,22.27
2023-01-23T06:51:15.091Z,22.34
2023-01-23T06:52:14.300Z,22.53
2023-01-23T06:53:14.246Z,21.88
2023-01-23T06:54:14.211Z,20.81
2023-01-23T06:55:14.806Z,22.34
2023-01-23T06:56:14.077Z,23.10
2023-01-23T06:57:14.030Z,22.95
2023-01-23T06:58:17.190Z,23.02
2023-01-23T06:59:14.162Z,23.00
2023-01-23T07:00:13.882Z,22.94
2023-01-23T07:01:13.867Z,22.94
2023-01-23T07:02:13.909Z,22.82
2023-01-23T07:03:14.278Z,22.77
2023-01-23T07:04:14.206Z,22.77
2023-01-23T07:05:13.634Z,22.76
2023-01-23T07:06:13.590Z,22.79
2023-01-23T07:07:13.511Z,22.79
2023-01-23T07:08:13.461Z,22.81
2023-01-23T07:09:13.374Z,22.80
2023-01-23T07:10:13.314Z,22.81
2023-01-23T07:11:13.648Z,22.80
2023-01-23T07:12:13.217Z,22.81
2023-01-23T07:13:13.147Z,22.79
2023-01-23T07:14:13.781Z,22.80
2023-01-23T07:15:13.099Z,22.81
2023-01-23T07:16:13.045Z,22.79
2023-01-23T07:17:12.921Z,22.80
2023-01-23T07:18:12.991Z,22.78
2023-01-23T07:19:12.789Z,22.78
2023-01-23T07:20:13.217Z,22.79
2023-01-23T07:21:13.158Z,22.78
2023-01-23T07:22:13.025Z,22.79
2023-01-23T07:23:12.552Z,22.80
2023-01-23T07:24:12.492Z,22.78
2023-01-23T07:25:12.606Z,22.76
2023-01-23T07:26:12.705Z,22.77
2023-01-23T07:27:12.317Z,22.78
2023-01-23T07:28:12.260Z,22.80
2023-01-23T07:29:12.223Z,22.76
2023-01-23T07:30:12.136Z,22.78
2023-01-23T07:31:12.208Z,22.80
2023-01-23T07:32:12.115Z,22.79
2023-01-23T07:33:11.976Z,22.78
2023-01-23T07:34:12.074Z,22.79
2023-01-23T07:35:12.860Z,22.78
2023-01-23T07:36:11.812Z,22.80
2023-01-23T07:37:12.108Z,22.79
2023-01-23T07:38:11.698Z,22.79
2023-01-23T07:39:11.662Z,22.78
2023-01-23T07:40:11.591Z,22.79
2023-01-23T07:41:11.549Z,22.77
2023-01-23T07:42:11.736Z,22.74
2023-01-23T07:43:11.438Z,22.75
2023-01-23T07:44:11.378Z,22.77
2023-01-23T07:45:11.345Z,22.74
2023-01-23T07:46:11.338Z,22.74
2023-01-23T07:47:11.611Z,22.72
2023-01-23T07:48:11.223Z,22.71
2023-01-23T07:49:11.126Z,22.71
2023-01-23T07:50:11.215Z,22.71
2023-01-23T07:51:12.128Z,22.69
2023-01-23T07:52:11.114Z,22.69
2023-01-23T07:53:10.968Z,22.68
2023-01-23T07:54:10.869Z,22.67
2023-01-23T07:55:10.903Z,22.65
2023-01-23T07:56:11.117Z,22.65
2023-01-23T07:57:10.845Z,22.64
2023-01-23T07:58:10.651Z,22.63
2023-01-23T07:59:10.699Z,22.65
2023-01-23T08:00:10.534Z,22.64
2023-01-23T08:01:10.697Z,22.64
2023-01-23T08:02:10.427Z,22.63
2023-01-23T08:03:10.376Z,22.61
2023-01-23T08:04:10.360Z,22.63
2023-01-23T08:05:10.779Z,22.61
2023-01-23T08:06:10.738Z,22.62
2023-01-23T08:07:10.232Z,22.61
2023-01-23T08:08:14.056Z,22.58
2023-01-23T08:09:10.053Z,22.57
2023-01-23T08:10:09.998Z,22.59
2023-01-23T08:11:10.120Z,22.58
2023-01-23T08:12:09.919Z,22.57
2023-01-23T08:13:10.818Z,22.56
2023-01-23T08:14:09.760Z,22.56
2023-01-23T08:15:10.122Z,22.55
2023-01-23T08:16:11.458Z,22.55
2023-01-23T08:17:10.185Z,22.55
2023-01-23T08:18:09.623Z,22.54
2023-01-23T08:19:09.487Z,22.54
2023-01-23T08:20:09.413Z,22.55
2023-01-23T08:21:09.351Z,22.53
2023-01-23T08:22:09.415Z,22.53
2023-01-23T08:23:09.624Z,22.53
2023-01-23T08:24:09.189Z,22.52
2023-01-23T08:25:09.125Z,22.50
2023-01-23T08:26:09.070Z,22.49
2023-01-23T08:27:09.025Z,22.50
2023-01-23T08:28:09.134Z,22.50
2023-01-23T08:29:08.909Z,22.50
2023-01-23T08:30:08.842Z,22.48
2023-01-23T08:31:08.989Z,22.47
2023-01-23T08:32:08.772Z,22.47
2023-01-23T08:33:09.141Z,22.44
2023-01-23T08:34:08.657Z,22.46
2023-01-23T08:35:08.561Z,22.45
2023-01-23T08:36:11.236Z,22.48
2023-01-23T08:37:08.477Z,22.45
2023-01-23T08:38:08.528Z,22.45
2023-01-23T08:39:08.632Z,22.79
2023-01-23T08:40:08.287Z,23.17
2023-01-23T08:41:08.218Z,23.13
2023-01-23T08:42:08.391Z,23.34
2023-01-23T08:43:08.137Z,23.42
2023-01-23T08:44:08.034Z,23.54
2023-01-23T08:45:07.998Z,23.70
2023-01-23T08:46:07.996Z,23.81
2023-01-23T08:47:09.998Z,23.89
2023-01-23T08:48:08.082Z,24.03
2023-01-23T08:49:09.332Z,24.18
2023-01-23T08:50:07.673Z,24.33
2023-01-23T08:51:07.700Z,24.42
2023-01-23T08:52:07.557Z,24.73
2023-01-23T08:53:07.665Z,24.67
2023-01-23T08:54:07.554Z,24.71
2023-01-23T08:55:07.371Z,24.77
2023-01-23T08:56:07.379Z,24.82
2023-01-23T08:57:08.644Z,25.09
2023-01-23T08:58:07.705Z,25.09
2023-01-23T08:59:07.115Z,25.23
2023-01-23T09:00:08.055Z,25.09
2023-01-23T09:01:08.121Z,23.19
2023-01-23T09:02:07.148Z,22.50
2023-01-23T09:03:06.849Z,22.12
2023-01-23T09:04:06.930Z,21.81
2023-01-23T09:05:06.732Z,21.58
2023-01-23T09:06:06.681Z,21.36
2023-01-23T09:07:06.667Z,21.29
2023-01-23T09:08:06.681Z,21.56
2023-01-23T09:09:06.740Z,22.10
2023-01-23T09:10:07.275Z,22.74
2023-01-23T09:11:06.657Z,23.06
2023-01-23T09:12:06.350Z,23.44
2023-01-23T09:13:06.294Z,23.78
2023-01-23T09:14:06.224Z,23.80
2023-01-23T09:15:06.203Z,23.89
2023-01-23T09:16:06.193Z,23.94
2023-01-23T09:17:06.041Z,24.03
2023-01-23T09:18:05.988Z,24.10
2023-01-23T09:19:05.940Z,24.16
2023-01-23T09:20:05.855Z,24.31
2023-01-23T09:21:08.540Z,24.39
2023-01-23T09:22:05.734Z,24.45
2023-01-23T09:23:05.687Z,24.54
2023-01-23T09:24:05.610Z,24.65
2023-01-23T09:25:05.537Z,24.78
2023-01-23T09:26:05.596Z,24.83
2023-01-23T09:27:05.417Z,24.94
2023-01-23T09:28:05.354Z,25.13
2023-01-23T09:29:05.646Z,25.21
2023-01-23T09:30:05.230Z,25.24
2023-01-23T09:31:05.293Z,25.46
2023-01-23T09:32:05.241Z,25.50
2023-01-23T09:33:05.033Z,25.57
2023-01-23T09:34:05.011Z,25.67
2023-01-23T09:35:04.915Z,25.82
2023-01-23T09:36:04.839Z,25.90
2023-01-23T09:37:04.810Z,26.09
2023-01-23T09:38:04.703Z,26.17
2023-01-23T09:39:04.636Z,26.31
2023-01-23T09:40:04.583Z,26.31
2023-01-23T09:41:04.651Z,26.45
2023-01-23T09:42:06.432Z,26.52
2023-01-23T09:43:04.387Z,26.66
2023-01-23T09:44:04.326Z,26.73
2023-01-23T09:45:04.302Z,26.78
2023-01-23T09:46:04.799Z,26.82
2023-01-23T09:47:04.119Z,26.93
2023-01-23T09:48:04.065Z,27.00
2023-01-23T09:49:04.153Z,27.05
2023-01-23T09:50:03.939Z,27.17
2023-01-23T09:51:03.907Z,27.24
2023-01-23T09:52:03.815Z,27.38
2023-01-23T09:53:03.765Z,27.35
2023-01-23T09:54:03.672Z,27.38
2023-01-23T09:55:03.609Z,27.53
2023-01-23T09:56:03.547Z,27.52
2023-01-23T09:57:03.469Z,27.61
2023-01-23T09:58:03.653Z,27.73
2023-01-23T09:59:03.350Z,27.81
2023-01-23T10:00:03.257Z,28.07
2023-01-23T10:01:03.262Z,28.05
2023-01-23T10:02:03.189Z,28.13
2023-01-23T10:03:03.058Z,28.14
2023-01-23T10:04:03.183Z,28.18
2023-01-23T10:05:03.205Z,28.29
2023-01-23T10:06:02.856Z,28.32
2023-01-23T10:07:02.781Z,28.43
2023-01-23T10:08:03.195Z,28.51
2023-01-23T10:09:02.684Z,28.59
2023-01-23T10:10:02.581Z,28.56
2023-01-23T10:11:02.505Z,28.67
2023-01-23T10:12:02.450Z,28.96
2023-01-23T10:13:02.364Z,29.17
2023-01-23T10:14:02.428Z,29.38
2023-01-23T10:15:02.675Z,29.38
2023-01-23T10:16:02.357Z,29.57
2023-01-23T10:17:02.093Z,29.42
2023-01-23T10:18:02.033Z,29.42
2023-01-23T10:19:01.941Z,29.28
2023-01-23T10:20:02.173Z,29.11
2023-01-23T10:21:01.803Z,29.07
2023-01-23T10:22:01.729Z,29.32
2023-01-23T10:23:01.793Z,29.22
2023-01-23T10:24:01.591Z,29.35
2023-01-23T10:25:01.525Z,29.53
2023-01-23T10:26:01.684Z,29.61
2023-01-23T10:27:01.399Z,29.62
2023-01-23T10:28:01.345Z,29.66
2023-01-23T10:29:01.421Z,29.59
2023-01-23T10:30:01.828Z,29.57
2023-01-23T10:31:01.237Z,29.64
2023-01-23T10:32:01.447Z,29.73
2023-01-23T10:33:01.623Z,29.79
2023-01-23T10:34:03.514Z,29.81
2023-01-23T10:35:01.300Z,29.81
2023-01-23T10:36:01.659Z,29.84
2023-01-23T10:37:01.148Z,29.90
2023-01-23T10:38:00.677Z,29.93
2023-01-23T10:39:01.616Z,29.91
2023-01-23T10:40:00.680Z,29.87
2023-01-23T10:41:00.526Z,30.25
2023-01-23T10:42:02.921Z,30.03
2023-01-23T10:43:00.364Z,30.10
2023-01-23T10:44:00.291Z,30.08
2023-01-23T10:45:00.677Z,30.09
2023-01-23T10:46:00.919Z,30.12
2023-01-23T10:47:00.170Z,30.10
2023-01-23T10:48:12.192Z,30.12
2023-01-23T10:48:59.961Z,30.15
2023-01-23T10:50:00.198Z,30.13
2023-01-23T10:50:59.904Z,30.16
2023-01-23T10:51:59.845Z,30.42
2023-01-23T10:52:59.708Z,30.26
2023-01-23T10:54:04.524Z,30.21
2023-01-23T10:54:59.698Z,30.23
2023-01-23T10:55:59.510Z,30.22
2023-01-23T10:56:59.472Z,30.19
2023-01-23T10:57:59.365Z,30.24
2023-01-23T10:58:59.309Z,30.32
2023-01-23T10:59:59.699Z,30.26
2023-01-23T11:00:59.265Z,30.26
2023-01-23T11:01:59.273Z,30.30
2023-01-23T11:02:59.042Z,30.29
2023-01-23T11:03:58.960Z,30.34
2023-01-23T11:04:58.881Z,30.36
2023-01-23T11:05:58.801Z,30.33
2023-01-23T11:06:58.727Z,30.29
2023-01-23T11:07:58.705Z,30.31
2023-01-23T11:08:58.593Z,30.27
2023-01-23T11:09:58.537Z,30.34
2023-01-23T11:10:58.504Z,30.42
2023-01-23T11:11:58.384Z,30.43
2023-01-23T11:13:00.649Z,30.57
2023-01-23T11:13:58.233Z,30.45
2023-01-23T11:14:58.231Z,30.42
2023-01-23T11:15:58.134Z,30.43
2023-01-23T11:16:58.204Z,30.43
2023-01-23T11:17:58.335Z,30.58
2023-01-23T11:18:57.918Z,30.59
2023-01-23T11:19:57.815Z,30.70
2023-01-23T11:21:05.167Z,30.18
2023-01-23T11:21:57.656Z,30.59
2023-01-23T11:22:57.706Z,30.52
2023-01-23T11:23:57.515Z,30.59
2023-01-23T11:24:57.739Z,30.56
2023-01-23T11:25:57.386Z,30.50
2023-01-23T11:26:57.309Z,30.43
2023-01-23T11:27:57.240Z,30.36
2023-01-23T11:28:57.167Z,30.32
2023-01-23T11:29:57.098Z,30.30
2023-01-23T11:31:12.453Z,30.23
2023-01-23T11:31:57.074Z,30.18
2023-01-23T11:32:56.978Z,30.13
2023-01-23T11:33:56.959Z,30.08
2023-01-23T11:34:56.762Z,30.05
2023-01-23T11:35:56.710Z,30.02
2023-01-23T11:36:56.629Z,29.96
2023-01-23T11:37:56.564Z,29.93
2023-01-23T11:38:56.746Z,29.91
2023-01-23T11:39:56.431Z,29.88
2023-01-23T11:40:56.361Z,29.84
2023-01-23T11:41:56.280Z,29.83
2023-01-23T11:42:56.215Z,29.78
2023-01-23T11:43:56.477Z,29.75
2023-01-23T11:44:56.213Z,29.71
2023-01-23T11:45:56.036Z,29.69
2023-01-23T11:46:55.948Z,29.67
2023-01-23T11:47:55.890Z,29.64
2023-01-23T11:48:55.797Z,29.62
2023-01-23T11:49:56.339Z,29.59
2023-01-23T11:50:56.283Z,29.55
2023-01-23T11:51:55.607Z,29.50
2023-01-23T11:52:55.533Z,29.49
2023-01-23T11:53:55.502Z,29.48
2023-01-23T11:54:55.405Z,29.44
2023-01-23T11:55:55.335Z,29.41
2023-01-23T11:56:55.717Z,29.39
2023-01-23T11:57:55.198Z,29.35
2023-01-23T11:58:55.144Z,29.32
2023-01-23T11:59:55.078Z,29.29
2023-01-23T12:00:55.225Z,29.25
2023-01-23T12:02:03.015Z,29.22
2023-01-23T12:02:54.930Z,29.18
2023-01-23T12:03:54.900Z,29.14
2023-01-23T12:04:54.904Z,29.15
2023-01-23T12:06:03.047Z,29.12
2023-01-23T12:06:54.610Z,29.10
2023-01-23T12:07:54.546Z,29.08
2023-01-23T12:08:54.504Z,29.04
2023-01-23T12:09:54.423Z,29.01
2023-01-23T12:10:54.745Z,28.96
2023-01-23T12:11:58.025Z,28.94
2023-01-23T12:12:54.328Z,28.92
2023-01-23T12:13:54.113Z,28.88
2023-01-23T12:14:55.049Z,28.84
2023-01-23T12:15:54.268Z,28.81
2023-01-23T12:16:53.918Z,28.82
2023-01-23T12:17:53.853Z,28.79
2023-01-23T12:18:54.069Z,28.79
2023-01-23T12:19:53.724Z,28.76
2023-01-23T12:20:53.744Z,28.74
2023-01-23T12:21:53.722Z,28.74
2023-01-23T12:22:53.528Z,28.71
2023-01-23T12:23:53.471Z,28.68
2023-01-23T12:24:53.729Z,28.68
2023-01-23T12:25:53.343Z,28.64
2023-01-23T12:26:53.278Z,28.61
2023-01-23T12:27:53.240Z,28.58
2023-01-23T12:28:53.161Z,28.58
2023-01-23T12:29:53.079Z,28.56
2023-01-23T12:30:53.055Z,28.59
2023-01-23T12:31:53.076Z,28.56
2023-01-23T12:32:52.879Z,28.54
2023-01-23T12:33:52.823Z,28.51
2023-01-23T12:34:52.749Z,28.51
2023-01-23T12:35:52.730Z,28.50
2023-01-23T12:37:10.005Z,28.47
2023-01-23T12:37:52.680Z,28.46
2023-01-23T12:38:52.483Z,28.46
2023-01-23T12:39:52.414Z,28.44
2023-01-23T12:40:52.773Z,28.44
2023-01-23T12:41:52.285Z,28.42
2023-01-23T12:42:52.209Z,28.40
2023-01-23T12:43:54.242Z,28.39
2023-01-23T12:44:52.084Z,28.38
2023-01-23T12:45:52.254Z,28.36
2023-01-23T12:46:52.048Z,28.34
2023-01-23T12:47:51.914Z,28.34
2023-01-23T12:48:52.251Z,28.32
2023-01-23T12:49:51.765Z,28.27
2023-01-23T12:50:51.697Z,28.26
2023-01-23T12:51:52.646Z,28.24
2023-01-23T12:52:51.569Z,28.22
2023-01-23T12:53:51.900Z,28.22
2023-01-23T12:54:51.408Z,28.19
2023-01-23T12:55:51.761Z,28.14
2023-01-23T12:58:07.257Z,28.08
2023-01-23T12:58:51.270Z,28.06
2023-01-23T12:59:51.081Z,28.07
2023-01-23T13:00:51.067Z,28.07
2023-01-23T13:01:51.320Z,28.07
2023-01-23T13:02:50.884Z,28.04
2023-01-23T13:03:51.248Z,27.98
2023-01-23T13:04:50.773Z,27.93
2023-01-23T13:05:50.682Z,27.91
2023-01-23T13:06:50.807Z,27.92
2023-01-23T13:07:50.592Z,27.90
2023-01-23T13:09:02.641Z,27.92
2023-01-23T13:09:50.769Z,27.89
2023-01-23T13:10:50.351Z,27.88
2023-01-23T13:11:50.279Z,27.88
2023-01-23T13:12:50.215Z,27.85
2023-01-23T13:13:50.167Z,27.85
2023-01-23T13:15:34.345Z,27.82
2023-01-23T13:15:50.017Z,27.82
2023-01-23T13:16:50.031Z,27.83
2023-01-23T13:17:49.885Z,27.81
2023-01-23T13:18:49.825Z,27.79
2023-01-23T13:19:50.247Z,27.79
2023-01-23T13:20:50.054Z,27.77
2023-01-23T13:21:49.632Z,27.75
2023-01-23T13:22:49.561Z,27.71
2023-01-23T13:23:49.489Z,27.72
2023-01-23T13:24:49.854Z,27.69
2023-01-23T13:25:49.479Z,27.66
2023-01-23T13:26:49.284Z,27.66
2023-01-23T13:27:49.213Z,27.66
2023-01-23T13:28:49.181Z,27.64
2023-01-23T13:29:49.094Z,27.65
2023-01-23T13:30:49.249Z,27.61
2023-01-23T13:31:49.032Z,27.60
2023-01-23T13:32:50.725Z,27.57
2023-01-23T13:33:51.265Z,27.54
2023-01-23T13:34:48.779Z,27.55
2023-01-23T13:35:48.697Z,27.55
2023-01-23T13:36:48.865Z,27.54
2023-01-23T13:37:48.566Z,27.52
2023-01-23T13:38:48.492Z,27.50
2023-01-23T13:39:51.045Z,27.47
2023-01-23T13:40:48.376Z,27.45
2023-01-23T13:41:48.426Z,27.47